Terminal Aerodrome Forecast
Issued by NWS

Home | Current Version | Previous Version | Text Only | Print | Product List | Glossary On
Versions: 1 2 3 4 5 6 7 8 9 10 11 12 13
512
FTUS43 KLSX 261120
TAFCPS
TAF
KCPS 261120Z 2612/2712 30005KT P6SM BKN250
     FM261600 32012KT P6SM SKC
     FM270000 VRB04KT P6SM SKC=

USA.gov is the U.S. government's official web portal to all federal, state and local government web resources and services.